Anloo, Netherlands
Current Conditions -  °F | °C
As of 5:25 AM on Wednesday 26 Nov 2014 (Local Time) from EHGG Reporting Station
Overcast Overcast  
Wind Chill: 34°   Ceiling: 1200
Heat Index: 41°   Visibility: 5mi
Dew Point: 37°   Wind: 13mph
Humidity: 87%   Direction: 110°ESE
Pressure: 30.12"   Gusts: NA
Location:  53.04°N, 6.7°E
Report Text: EHGG 260425Z AUTO 11011KT 070V150 8000 OVC012 05/03 Q1020
Loading
Personal Weather Stations






























Interactive Weather Map New forecast layout! Learn more

10-Day Weather Forecast

Advertisements
Track Severe Weather on mobile